Terminal Aerodrome Forecast
Issued by NWS

Home | Current Version | Previous Version | Text Only | Print | Product List | Glossary On
Versions: 1 2 3 4 5 6 7 8 9 10 11 12 13 14
000
FTUS43 KIND 291700
TAFBMG
TAF
KBMG 291729Z 2918/3018 17007KT P6SM FEW035
     FM292000 16007KT P6SM VCTS BKN045CB
     FM300400 17005KT P6SM SCT040 BKN120
     FM301600 21011KT P6SM VCTS BKN035CB=

USA.gov is the U.S. government's official web portal to all federal, state and local government web resources and services.